• Join FlightAware (Why Join?)
  • Login
  • US Flag 
02:16AM EDT


 

Airport Tracker/Info


-or-


 

Live Flight TrackerFlight Track Log ✈ N865JM ✈ 30-Jan-2014 ✈ KPBI - KIAD

Flight Track Log - Related Links

Times and Time Zones

All times are in EST time to prevent confusion due to time zone crossing. See the N865JM flight status page for this flight to view local times or setup timezone preferences in your user account.

Time Position Orientation Groundspeed Altitude Reporting Facility
EST Latitude Longitude Course Direction KTS MPH feet Rate Location/Type
12:14PM 26.7833 -80.2100 332° Northwest 250 288 5,600  Level Miami Center
12:15PM 26.8358 -80.2881 307° West 279 321 8,600 2,700 Climbing Miami Center
12:16PM 26.8972 -80.3458 320° Northwest 284 327 11,000 2,280 Climbing Miami Center
12:17PM 26.9775 -80.3925 333° Northwest 313 360 13,200 2,460 Climbing Miami Center
12:18PM 27.0603 -80.4253 341° North 337 388 16,000 2,400 Climbing Miami Center
12:19PM 27.0780 -80.4234 332° Northwest  Level FlightAware Approximate
12:19PM 27.1447 -80.4722 334° Northwest 337 388 18,100  Level Miami Center
12:20PM 27.2311 -80.5242 332° Northwest 342 394 20,300 2,160 Climbing Miami Center
12:21PM 27.3153 -80.5781 330° Northwest 347 399 22,500 2,100 Climbing Miami Center
12:22PM 27.4017 -80.6300 332° Northwest 347 399 24,500 1,260 Climbing Miami Center
12:23PM 27.4919 -80.6844 332° Northwest 347 399 25,100 840 Climbing Miami Center
12:24PM 27.5906 -80.7464 331° Northwest 371 427 26,200 1,140 Climbing Miami Center
12:25PM 27.6933 -80.8061 333° Northwest 393 452 27,400 1,140 Climbing Miami Center
12:26PM 27.7939 -80.8683 331° Northwest 405 466 28,500 1,200 Climbing Miami Center
12:27PM 27.8983 -80.9353 330° Northwest 411 473 29,800 1,200 Climbing Miami Center
12:28PM 28.0181 -80.9819 341° North 429 494 30,900 900 Climbing Miami Center
12:29PM 28.1425 -81.0078 350° North 440 506 31,700 780 Climbing Miami Center
12:30PM 28.2711 -81.0383 348° North 460 529 32,500 780 Climbing Miami Center
12:31PM 28.4017 -81.0669 349° North 471 542 33,300 540 Climbing Miami Center
12:35PM 28.8333 -81.1647 349° North 472 543 35,000 360 Climbing Jacksonville Center
12:36PM 28.9631 -81.1958 348° North 472 543 35,000  Level Jacksonville Center
12:37PM 29.0928 -81.2244 349° North 478 550 35,000  Level Jacksonville Center
12:38PM 29.2225 -81.2508 350° North 478 550 35,000  Level Jacksonville Center
12:39PM 29.3483 -81.2892 345° North 478 550 35,000  Level Jacksonville Center
12:40PM 29.4822 -81.3086 353° North 473 544 35,000  Level Jacksonville Center
12:41PM 29.6100 -81.3397 348° North 468 539 35,000  Level Jacksonville Center
12:42PM 29.7500 -81.3494 357° North 478 550 35,000  Level Jacksonville Center
12:43PM 29.8878 -81.3569 357° North 488 562 35,000  Level Jacksonville Center
12:44PM 30.0236 -81.3644 357° North 494 568 35,000  Level Jacksonville Center
12:45PM 30.1447 -81.3672 359° North 489 563 35,000  Level Jacksonville Center
12:46PM 30.2806 -81.3794 356° North 484 557 35,000  Level Jacksonville Center
12:47PM 30.4183 -81.3847 358° North 484 557 35,000  Level Jacksonville Center
12:48PM 30.5522 -81.3947 356° North 484 557 35,000  Level Jacksonville Center
12:49PM 30.6900 -81.4022 357° North 478 550 35,000  Level Jacksonville Center
12:50PM 30.8239 -81.4144 356° North 483 556 35,000  Level Jacksonville Center
12:51PM 30.9597 -81.4244 356° North 483 556 35,000  Level Jacksonville Center
12:52PM 31.1100 -81.4342 357° North 483 556 35,000  Level Jacksonville Center
12:53PM 31.2353 -81.4347 360° North 483 556 35,000 180 Level Jacksonville Center
12:54PM 31.3853 -81.3983 12° North 491 565 35,400 600 Climbing Jacksonville Center
12:55PM 31.5200 -81.3303 23° Northeast 501 577 36,200 600 Climbing Jacksonville Center
12:56PM 31.6425 -81.2650 24° Northeast 531 611 36,700 360 Climbing Jacksonville Center
12:57PM 31.7897 -81.1842 25° Northeast 526 605 37,000 120 Climbing Jacksonville Center
12:58PM 31.9161 -81.1156 25° Northeast 531 611 37,000  Level Jacksonville Center
12:59PM 32.0653 -81.0344 25° Northeast 536 617 37,000  Level Jacksonville Center
01:00PM 32.2019 -80.9603 25° Northeast 543 625 37,000  Level Jacksonville Center
01:01PM 32.3242 -80.8939 25° Northeast 536 617 37,000  Level Jacksonville Center
01:02PM 32.4606 -80.8169 25° Northeast 536 617 37,000  Level Jacksonville Center
01:03PM 32.5972 -80.7447 24° Northeast 536 617 37,000  Level Jacksonville Center
01:04PM 32.7336 -80.6675 25° Northeast 536 617 37,000  Level Jacksonville Center
01:05PM 32.8700 -80.5925 25° Northeast 541 623 37,000  Level Jacksonville Center
01:06PM 33.0086 -80.5169 25° Northeast 541 623 37,000  Level Jacksonville Center
01:07PM 33.1614 -80.4336 25° Northeast 541 623 37,000  Level Jacksonville Center
01:08PM 33.2997 -80.3553 25° Northeast 541 623 37,000  Level Jacksonville Center
01:09PM 33.4358 -80.2767 26° Northeast 541 623 37,000  Level Jacksonville Center
01:10PM 33.5739 -80.1978 25° Northeast 536 617 37,000  Level Jacksonville Center
01:11PM 33.7119 -80.1186 25° Northeast 541 623 37,000  Level Jacksonville Center
01:12PM 33.8481 -80.0394 26° Northeast 541 623 37,000  Level Jacksonville Center
01:13PM 33.9861 -79.9622 25° Northeast 541 623 37,000  Level Jacksonville Center
01:14PM 34.1239 -79.8850 25° Northeast 541 623 37,000  Level Jacksonville Center
01:16PM 34.3861 -79.7317 26° Northeast 555 639 37,000  Level Washington Center
01:17PM 34.5203 -79.6528 26° Northeast 544 626 37,000  Level Washington Center
01:18PM 34.6564 -79.5736 26° Northeast 533 613 37,000  Level Washington Center
01:19PM 34.7903 -79.4942 26° Northeast 533 613 37,000  Level Washington Center
01:20PM 34.9264 -79.4197 24° Northeast 533 613 37,000  Level Washington Center
01:21PM 35.0647 -79.3375 26° Northeast 538 619 37,000  Level Washington Center
01:22PM 35.2006 -79.2572 26° Northeast 538 619 37,000  Level Washington Center
01:23PM 35.3261 -79.1817 26° Northeast 543 625 37,000 -360 Level Washington Center
01:24PM 35.4747 -79.0939 26° Northeast 537 618 36,300 -840 Descending Washington Center
01:25PM 35.5958 -79.0225 26° Northeast 537 618 35,300 -1,200 Descending Washington Center
01:26PM 35.7317 -78.9414 26° Northeast 537 618 34,000 -1,200 Descending Washington Center
01:27PM 35.8653 -78.8625 26° Northeast 537 618 33,000 -900 Descending Washington Center
01:28PM 36.0011 -78.7783 27° Northeast 537 618 32,300 -1,020 Descending Washington Center
01:29PM 36.1367 -78.6964 26° Northeast 537 618 31,000 -1,920 Descending Washington Center
01:30PM 36.2722 -78.6142 26° Northeast 537 618 28,500 -2,040 Descending Washington Center
01:31PM 36.3953 -78.5389 26° Northeast 519 597 27,000 -780 Descending Washington Center
01:32PM 36.5139 -78.4658 26° Northeast 490 564 27,000  Level Washington Center
01:33PM 36.6344 -78.3925 26° Northeast 474 545 27,000  Level Washington Center
01:34PM 36.7658 -78.3092 27° Northeast 474 545 27,000  Level Washington Center
01:35PM 36.8886 -78.2331 26° Northeast 479 551 27,000  Level Washington Center
01:36PM 37.0006 -78.1614 27° Northeast 485 558 27,000 -60 Level Washington Center
01:37PM 37.1339 -78.0797 26° Northeast 485 558 26,900 -900 Descending Washington Center
01:38PM 37.2542 -78.0056 26° Northeast 480 552 25,300 -1,560 Descending Washington Center
01:39PM 37.3683 -77.9306 28° Northeast 473 544 23,800 -1,560 Descending Washington Center
01:40PM 37.4803 -77.8608 26° Northeast 462 532 22,300 -1,140 Descending Washington Center
01:41PM 37.5942 -77.7908 26° Northeast 451 519 21,600 -6,120 Descending Washington Center
01:42PM 37.7058 -77.7258 25° Northeast 445 512 10,000 -2,160 Descending Washington Center
01:43PM 37.8069 -77.6708 23° Northeast 420 483 17,300 2,520 Climbing Washington Center
01:44PM 37.8975 -77.6156 26° Northeast 383 441 15,100 -2,220 Descending Washington Center
01:45PM 37.9922 -77.5600 25° Northeast 370 426 13,000 -1,920 Descending Washington Center
01:46PM 38.0703 -77.5172 23° Northeast 370 426 11,300 -1,500 Descending Washington Center
01:47PM 38.1714 -77.4536 26° Northeast 358 412 10,100 -660 Descending Washington Center
01:48PM 38.2492 -77.4081 25° Northeast 321 369 10,100  Level Washington Center
01:49PM 38.3250 -77.3650 24° Northeast 300 345 10,100 -600 Level Washington Center
01:50PM 38.4042 -77.3564 North 288 331 8,900 -1,380 Descending Washington Center
01:51PM 38.4833 -77.3608 357° North 288 331 7,400 -1,440 Descending Washington Center
01:52PM 38.5583 -77.3653 357° North 276 318 6,100 -1,320 Descending Washington Center
01:53PM 38.6356 -77.3669 359° North 271 312 4,900 -1,260 Descending Washington Center
01:53PM 38.7000 -77.3667 360° North 267 307 4,000 -600 Descending Potomac TRACON
01:54PM 38.7667 -77.3500 11° North 258 297 4,000 -240 Level Potomac TRACON
01:55PM 38.8333 -77.3500 360° North 254 292 3,600 -480 Descending Potomac TRACON
01:56PM 38.9000 -77.3500 360° North 238 274 3,000 -300 Descending Potomac TRACON
01:57PM 38.9667 -77.3500 360° North 226 260 3,000  Level Potomac TRACON
01:58PM 39.0333 -77.3500 360° North 220 253 3,000  Level Potomac TRACON
01:59PM 39.0833 -77.3500 360° North 219 252 3,000 -120 Level Potomac TRACON
02:00PM 39.0667 -77.4000 247° West 178 205 2,800 -600 Descending Potomac TRACON
02:01PM 39.0167 -77.4333 207° Southwest 164 189 1,800 -900 Descending Potomac TRACON
02:02PM 38.9833 -77.4333 180° South 126 145 1,100 -720 Descending Potomac TRACON
02:04PM 38.9474 -77.4599 195° South  Level Estimated
02:11PM 38.9474 -77.4599 195° South  Level Estimated
02:12PM 38.9474 -77.4599 195° South  Level Estimated